Time;durP1;ratioP1;P1;durP2;ratioP2;P2;SDS_P1;SDS_P2;PMS_P1;PMS_P2;Temp;Humidity;BMP_temperature;BMP_pressure;BME280_temperature;BME280_humidity;BME280_pressure;Samples;Min_cycle;Max_cycle;Signal;HPM_P1;HPM_P2
2022/06/19 00:02:12;;;;;;;;;;;;;;;19.42;50.13;101191.72;5056858;28;20281;-76
2022/06/19 00:04:39;;;;;;;;;;;;;;;19.43;50.49;101185.38;5049490;28;19923;-76
2022/06/19 00:07:05;;;;;;;;;;;;;;;19.53;50.00;101189.34;5048361;28;19929;-76
2022/06/19 00:09:31;;;;;;;;;;;;;;;19.55;49.71;101182.94;5050092;28;19916;-76
2022/06/19 00:11:57;;;;;;;;;;;;;;;19.61;49.77;101184.44;5053261;28;19948;-76
2022/06/19 00:14:24;;;;;;;;;;;;;;;19.56;48.91;101191.88;5061447;28;20405;-76
2022/06/19 00:16:50;;;;;;;;;;;;;;;19.53;49.13;101175.91;5048805;28;19923;-76
2022/06/19 00:19:16;;;;;;;;;;;;;;;19.62;49.13;101164.66;5050500;28;19916;-76
2022/06/19 00:21:42;;;;;;;;;;;;;;;19.58;49.11;101157.72;5049482;28;19923;-76
2022/06/19 00:24:08;;;;;;;;;;;;;;;19.56;48.59;101171.25;5048532;28;19928;-76
2022/06/19 00:26:34;;;;;;;;;;;;;;;19.56;48.30;101191.88;5048145;28;19960;-76
2022/06/19 00:29:00;;;;;;;;;;;;;;;19.55;48.31;101250.13;5053913;28;19970;-76
2022/06/19 00:31:26;;;;;;;;;;;;;;;19.49;48.25;101306.88;5057360;28;19960;-76
2022/06/19 00:33:53;;;;;;;;;;;;;;;19.35;47.83;101347.88;5055767;28;19944;-76
2022/06/19 00:36:21;;;;;;;;;;;;;;;19.24;46.73;101351.06;5048561;28;19970;-76
2022/06/19 00:38:48;;;;;;;;;;;;;;;19.29;46.26;101358.03;5049628;28;20310;-76
2022/06/19 00:41:14;;;;;;;;;;;;;;;19.46;45.85;101357.22;5045106;28;19928;-76
2022/06/19 00:43:57;;;;;;;;;;;;;;;19.42;45.67;101344.91;5050972;28;19975;-76
2022/06/19 00:52:00;;;;;;;;;;;;;;;19.63;46.46;101273.91;5065511;28;19971;-75
2022/06/19 00:54:28;;;;;;;;;;;;;;;19.56;47.54;101261.75;5053262;28;19923;-75
2022/06/19 00:56:54;;;;;;;;;;;;;;;19.52;46.29;101270.91;5057107;28;19948;-75
2022/06/19 00:59:20;;;;;;;;;;;;;;;19.48;46.41;101291.69;5050372;28;19917;-77
2022/06/19 01:01:46;;;;;;;;;;;;;;;19.46;45.76;101306.16;5048064;28;20011;-76
2022/06/19 01:04:32;;;;;;;;;;;;;;;19.40;45.53;101300.16;5048498;28;20437;-76
2022/06/19 01:06:58;;;;;;;;;;;;;;;19.35;45.70;101286.09;5045697;28;20011;-76
2022/06/19 01:09:24;;;;;;;;;;;;;;;19.29;45.43;101297.13;5049369;28;19964;-76
2022/06/19 01:11:50;;;;;;;;;;;;;;;19.29;45.49;101307.88;5044808;28;19926;-76
2022/06/19 01:14:20;;;;;;;;;;;;;;;19.38;44.71;101304.72;5049305;28;19959;-76
2022/06/19 01:16:46;;;;;;;;;;;;;;;19.35;44.58;101302.19;5051193;28;19925;-76
2022/06/19 01:19:18;;;;;;;;;;;;;;;19.25;43.60;101298.22;5046472;28;19917;-76
2022/06/19 01:21:50;;;;;;;;;;;;;;;19.24;43.04;101320.66;5049500;28;19925;-76
2022/06/19 01:24:36;;;;;;;;;;;;;;;19.29;42.32;101315.94;5050289;28;20302;-76
2022/06/19 01:27:04;;;;;;;;;;;;;;;19.05;41.27;101326.94;5053158;28;19927;-77
2022/06/19 01:29:32;;;;;;;;;;;;;;;19.17;41.82;101316.53;5040333;28;19916;-77
2022/06/19 01:32:01;;;;;;;;;;;;;;;19.27;42.80;101308.91;5050803;28;19921;-77
2022/06/19 01:34:32;;;;;;;;;;;;;;;19.22;42.57;101301.06;5050712;28;19978;-76
2022/06/19 01:37:00;;;;;;;;;;;;;;;19.13;41.86;101312.25;5050101;28;19952;-76
2022/06/19 01:39:28;;;;;;;;;;;;;;;19.08;42.29;101291.84;5055286;28;19962;-77
2022/06/19 01:41:54;;;;;;;;;;;;;;;19.15;42.56;101294.25;5047809;28;19924;-77
2022/06/19 01:44:20;;;;;;;;;;;;;;;19.15;42.63;101283.50;5049235;28;19962;-76
2022/06/19 01:46:46;;;;;;;;;;;;;;;19.20;43.07;101278.75;5045173;28;19917;-76
2022/06/19 01:49:13;;;;;;;;;;;;;;;19.12;43.52;101271.09;5045856;28;19924;-76
2022/06/19 01:51:39;;;;;;;;;;;;;;;18.96;44.17;101284.41;5063280;28;20405;-77
2022/06/19 01:54:11;;;;;;;;;;;;;;;19.12;45.70;101283.66;5064382;28;19920;-77
2022/06/19 01:56:37;;;;;;;;;;;;;;;19.15;45.52;101322.00;5065123;28;19948;-76
2022/06/19 01:59:05;;;;;;;;;;;;;;;19.20;45.86;101362.03;5069200;28;20025;-76
2022/06/19 02:01:33;;;;;;;;;;;;;;;19.10;46.30;101388.47;5063346;28;19917;-77
2022/06/19 02:04:00;;;;;;;;;;;;;;;19.04;46.78;101388.75;5055407;28;19927;-77
2022/06/19 02:06:28;;;;;;;;;;;;;;;19.06;46.63;101358.19;5052350;28;20286;-76
2022/06/19 02:08:54;;;;;;;;;;;;;;;19.10;47.19;101318.63;5050370;28;19924;-76
2022/06/19 02:11:20;;;;;;;;;;;;;;;19.18;47.15;101294.09;5052596;28;19927;-76
2022/06/19 02:13:48;;;;;;;;;;;;;;;19.20;47.30;101282.34;5051963;28;19917;-76
2022/06/19 02:16:17;;;;;;;;;;;;;;;19.20;47.05;101289.50;5060918;28;20451;-77
2022/06/19 02:18:46;;;;;;;;;;;;;;;19.15;47.32;101292.44;5052376;28;20287;-77
2022/06/19 02:21:15;;;;;;;;;;;;;;;19.08;47.81;101305.28;5050737;28;20333;-76
2022/06/19 02:23:41;;;;;;;;;;;;;;;19.08;48.12;101336.66;5051366;28;20003;-76
2022/06/19 02:26:09;;;;;;;;;;;;;;;19.06;48.07;101419.09;5052786;28;19921;-75
2022/06/19 02:28:37;;;;;;;;;;;;;;;19.06;47.89;101522.00;5051148;28;19952;-76
2022/06/19 02:31:06;;;;;;;;;;;;;;;18.85;48.41;101533.69;5057959;28;19995;-76
2022/06/19 02:33:34;;;;;;;;;;;;;;;18.95;48.02;101459.00;5049618;28;20065;-76
2022/06/19 02:36:00;;;;;;;;;;;;;;;18.94;48.58;101385.66;5049311;28;20074;-76
2022/06/19 02:38:26;;;;;;;;;;;;;;;18.92;48.14;101358.00;5052807;28;20310;-76
2022/06/19 02:40:58;;;;;;;;;;;;;;;18.97;48.13;101339.84;5048083;28;20395;-76
2022/06/19 02:43:28;;;;;;;;;;;;;;;18.89;48.51;101278.44;5061118;28;20425;-76
2022/06/19 02:45:55;;;;;;;;;;;;;;;18.94;49.43;101250.50;5051765;28;19959;-76
2022/06/19 02:48:37;;;;;;;;;;;;;;;19.07;49.03;101244.44;5046092;28;19956;-76
2022/06/19 02:51:16;;;;;;;;;;;;;;;19.06;48.14;101247.22;5049255;28;20337;-75
2022/06/19 02:53:42;;;;;;;;;;;;;;;19.09;48.40;101263.19;5056418;28;19959;-76
2022/06/19 02:56:08;;;;;;;;;;;;;;;19.14;47.53;101241.47;5051717;28;19916;-76
2022/06/19 02:58:34;;;;;;;;;;;;;;;19.08;47.95;101181.75;5054031;28;20016;-77
2022/06/19 03:01:00;;;;;;;;;;;;;;;18.98;48.16;101102.59;5054945;28;19923;-76
2022/06/19 03:03:28;;;;;;;;;;;;;;;19.04;48.74;101050.38;5051433;28;19923;-75
2022/06/19 03:05:55;;;;;;;;;;;;;;;19.05;48.23;101036.91;5049508;28;20268;-76
2022/06/19 03:08:21;;;;;;;;;;;;;;;19.00;48.24;101028.19;5050302;28;19916;-76
2022/06/19 03:10:47;;;;;;;;;;;;;;;18.97;49.09;101014.94;5052964;28;19932;-76
2022/06/19 03:13:16;;;;;;;;;;;;;;;19.02;49.02;101004.81;5052280;28;20104;-76
2022/06/19 03:15:42;;;;;;;;;;;;;;;19.07;49.01;101021.56;5055065;28;19916;-76
2022/06/19 03:18:08;;;;;;;;;;;;;;;19.02;48.42;101023.63;5046993;28;19923;-77
2022/06/19 03:20:34;;;;;;;;;;;;;;;19.10;49.05;101019.66;5051887;28;19916;-76
2022/06/19 03:23:00;;;;;;;;;;;;;;;19.08;48.93;101015.25;5047491;28;19955;-77
2022/06/19 03:25:26;;;;;;;;;;;;;;;19.07;49.11;101018.88;5052207;28;19917;-76
2022/06/19 03:27:53;;;;;;;;;;;;;;;19.16;48.66;101033.63;5053640;28;20407;-76
2022/06/19 03:30:20;;;;;;;;;;;;;;;19.19;48.64;101062.13;5048939;28;19921;-76
2022/06/19 03:32:46;;;;;;;;;;;;;;;19.20;48.98;101074.63;5049414;28;19917;-76
2022/06/19 03:35:13;;;;;;;;;;;;;;;19.28;47.87;101079.59;5051403;28;19917;-76
2022/06/19 03:37:39;;;;;;;;;;;;;;;19.36;49.73;101123.91;5051158;28;19993;-76
2022/06/19 03:40:06;;;;;;;;;;;;;;;19.35;49.38;101149.06;5050011;28;19924;-76
2022/06/19 03:42:32;;;;;;;;;;;;;;;19.39;49.63;101166.75;5053822;28;19920;-76
2022/06/19 03:44:58;;;;;;;;;;;;;;;19.38;49.03;101156.94;5051249;28;19917;-76
2022/06/19 03:47:25;;;;;;;;;;;;;;;19.36;49.99;101131.09;5051528;28;19916;-76
2022/06/19 03:49:52;;;;;;;;;;;;;;;19.30;50.09;101118.88;5049648;28;19925;-76
2022/06/19 03:52:18;;;;;;;;;;;;;;;19.22;51.12;101100.44;5047470;28;19959;-76
2022/06/19 03:54:44;;;;;;;;;;;;;;;19.31;50.59;101064.19;5050160;28;19920;-76
2022/06/19 03:57:12;;;;;;;;;;;;;;;19.29;53.05;101033.84;5056335;28;19925;-75
2022/06/19 03:59:38;;;;;;;;;;;;;;;19.29;54.70;101012.38;5052024;28;19917;-76
2022/06/19 04:02:04;;;;;;;;;;;;;;;19.29;54.88;100929.09;5047965;28;20367;-76
2022/06/19 04:04:30;;;;;;;;;;;;;;;19.20;57.11;100816.78;5048695;28;19978;-76
2022/06/19 04:06:56;;;;;;;;;;;;;;;19.01;58.47;100766.78;5050032;28;19963;-76
2022/06/19 04:09:22;;;;;;;;;;;;;;;18.84;59.89;100757.00;5048995;28;19963;-77
2022/06/19 04:11:48;;;;;;;;;;;;;;;18.64;58.76;100725.91;5046862;28;19921;-77
2022/06/19 04:14:15;;;;;;;;;;;;;;;18.53;58.66;100739.03;5050920;28;19917;-77
2022/06/19 04:16:43;;;;;;;;;;;;;;;18.39;59.31;100783.59;5052196;28;19920;-77
2022/06/19 04:19:09;;;;;;;;;;;;;;;18.30;57.79;100845.75;5051313;28;19924;-78
2022/06/19 04:21:40;;;;;;;;;;;;;;;18.11;56.67;101015.63;5052953;28;19916;-77
2022/06/19 04:24:07;;;;;;;;;;;;;;;17.60;57.39;101111.78;5050765;28;19928;-77
2022/06/19 04:26:35;;;;;;;;;;;;;;;17.63;57.64;101125.06;5053529;28;19923;-78
2022/06/19 04:29:01;;;;;;;;;;;;;;;17.56;58.00;101146.84;5057324;28;19928;-77
2022/06/19 04:31:27;;;;;;;;;;;;;;;17.61;59.04;101150.19;5047545;28;20078;-77
2022/06/19 04:33:53;;;;;;;;;;;;;;;17.53;58.92;101141.63;5047968;28;20070;-78
2022/06/19 04:36:21;;;;;;;;;;;;;;;17.60;59.42;101151.13;5054891;28;19917;-77
2022/06/19 04:38:49;;;;;;;;;;;;;;;17.67;59.93;101171.34;5047122;28;20008;-77
2022/06/19 04:41:18;;;;;;;;;;;;;;;17.65;59.21;101196.47;5035690;28;19923;-77
2022/06/19 04:43:44;;;;;;;;;;;;;;;17.71;59.72;101181.00;5049435;28;19956;-78
2022/06/19 04:46:10;;;;;;;;;;;;;;;17.68;59.59;101167.72;5053160;28;20367;-77
2022/06/19 04:48:37;;;;;;;;;;;;;;;17.69;59.49;101166.78;5047306;28;19916;-77
2022/06/19 04:51:03;;;;;;;;;;;;;;;17.77;59.54;101175.34;5052514;28;20366;-77
2022/06/19 04:53:29;;;;;;;;;;;;;;;17.84;59.41;101181.31;5049290;28;19939;-77
2022/06/19 04:55:55;;;;;;;;;;;;;;;17.91;59.05;101179.22;5053358;28;19923;-77
2022/06/19 04:58:22;;;;;;;;;;;;;;;17.90;60.43;101166.75;5049939;28;19923;-77
2022/06/19 05:00:49;;;;;;;;;;;;;;;17.90;60.97;101131.91;5046872;28;20413;-77
2022/06/19 05:03:16;;;;;;;;;;;;;;;18.03;60.18;101149.22;5048681;28;19917;-77
2022/06/19 05:05:43;;;;;;;;;;;;;;;17.88;60.22;101177.56;5046945;28;19936;-77
2022/06/19 05:08:09;;;;;;;;;;;;;;;17.91;60.07;101214.06;5050919;28;20282;-77
2022/06/19 05:10:35;;;;;;;;;;;;;;;17.91;59.79;101217.63;5048782;28;19958;-78
2022/06/19 05:13:02;;;;;;;;;;;;;;;17.69;59.98;101182.00;5051420;28;19917;-78
2022/06/19 05:15:28;;;;;;;;;;;;;;;17.61;60.00;101171.63;5050085;28;19921;-78
2022/06/19 05:17:55;;;;;;;;;;;;;;;17.73;59.87;101194.31;5048712;28;19926;-77
2022/06/19 05:20:21;;;;;;;;;;;;;;;17.69;60.62;101230.22;5048835;28;20015;-77
2022/06/19 05:22:47;;;;;;;;;;;;;;;17.59;60.13;101278.00;5035025;28;19916;-78
2022/06/19 05:25:13;;;;;;;;;;;;;;;17.32;61.14;101246.09;5049185;28;20268;-77
2022/06/19 05:27:40;;;;;;;;;;;;;;;17.27;61.77;101170.41;5047399;28;19931;-78
2022/06/19 05:30:11;;;;;;;;;;;;;;;17.16;62.94;101175.34;5049614;28;19979;-78
2022/06/19 05:32:37;;;;;;;;;;;;;;;17.16;61.96;101132.50;5048147;28;19924;-77
2022/06/19 05:35:03;;;;;;;;;;;;;;;17.05;63.02;101192.75;5048297;28;19999;-77
2022/06/19 05:37:29;;;;;;;;;;;;;;;17.06;64.00;101138.28;5051104;28;20581;-78
2022/06/19 05:39:56;;;;;;;;;;;;;;;16.98;63.76;101116.31;5053771;28;20404;-77
2022/06/19 05:42:22;;;;;;;;;;;;;;;16.94;63.44;101179.78;5052007;28;19925;-77
2022/06/19 05:44:49;;;;;;;;;;;;;;;16.97;62.61;101208.22;5055727;28;19956;-78
2022/06/19 05:47:18;;;;;;;;;;;;;;;16.91;64.18;101213.81;5052490;28;20424;-77
2022/06/19 05:49:44;;;;;;;;;;;;;;;16.82;63.93;101197.22;5052640;28;19920;-77
2022/06/19 05:52:15;;;;;;;;;;;;;;;16.80;64.86;101199.06;5051195;28;20011;-77
2022/06/19 05:54:42;;;;;;;;;;;;;;;16.80;64.47;101231.16;5052206;28;19916;-77
2022/06/19 05:57:08;;;;;;;;;;;;;;;16.82;64.28;101258.75;5033766;28;19936;-77
2022/06/19 05:59:34;;;;;;;;;;;;;;;16.90;63.94;101279.84;5052356;28;20263;-77
2022/06/19 06:02:00;;;;;;;;;;;;;;;16.97;63.84;101301.91;5049711;28;19917;-77
2022/06/19 06:04:26;;;;;;;;;;;;;;;17.02;64.48;101323.16;5050232;28;20008;-77
2022/06/19 06:06:53;;;;;;;;;;;;;;;17.03;64.45;101347.19;5053038;28;20016;-77
2022/06/19 06:09:19;;;;;;;;;;;;;;;17.11;64.03;101369.19;5052128;28;20392;-77
2022/06/19 06:11:45;;;;;;;;;;;;;;;17.00;64.18;101387.47;5050764;28;19979;-78
2022/06/19 06:14:12;;;;;;;;;;;;;;;17.11;63.09;101395.09;5054700;28;20010;-77
2022/06/19 06:16:38;;;;;;;;;;;;;;;17.05;63.84;101388.16;5052116;28;19947;-77
2022/06/19 06:19:04;;;;;;;;;;;;;;;16.94;63.54;101387.72;5057215;28;20413;-77
2022/06/19 06:21:30;;;;;;;;;;;;;;;16.97;63.85;101387.56;5049964;28;19917;-77
2022/06/19 06:23:56;;;;;;;;;;;;;;;16.91;63.13;101403.84;5049784;28;20466;-76
2022/06/19 06:26:30;;;;;;;;;;;;;;;16.87;62.73;101396.84;5053472;28;20371;-76
2022/06/19 06:28:57;;;;;;;;;;;;;;;16.91;62.64;101394.06;5053245;28;20302;-77
2022/06/19 06:31:23;;;;;;;;;;;;;;;16.97;62.67;101390.25;5050691;28;19921;-77
2022/06/19 06:33:49;;;;;;;;;;;;;;;16.97;62.82;101414.34;5051763;28;19917;-77
2022/06/19 06:36:16;;;;;;;;;;;;;;;17.04;63.20;101415.00;5053878;28;19917;-77
2022/06/19 06:38:42;;;;;;;;;;;;;;;17.06;62.90;101419.38;5053904;28;20360;-76
2022/06/19 06:41:09;;;;;;;;;;;;;;;17.13;62.46;101412.84;5054642;28;19920;-76
2022/06/19 06:43:36;;;;;;;;;;;;;;;17.17;62.90;101410.03;5049317;28;20436;-76
2022/06/19 06:46:03;;;;;;;;;;;;;;;17.17;62.54;101410.03;5056285;28;19933;-77
2022/06/19 06:48:30;;;;;;;;;;;;;;;17.11;62.30;101409.34;5050271;28;20007;-77
2022/06/19 06:50:56;;;;;;;;;;;;;;;17.20;61.95;101417.97;5048874;28;20317;-76
2022/06/19 06:53:22;;;;;;;;;;;;;;;17.20;61.79;101413.47;5050700;28;19917;-77
2022/06/19 06:55:48;;;;;;;;;;;;;;;17.18;62.18;101401.94;5050766;28;19920;-77
2022/06/19 06:58:14;;;;;;;;;;;;;;;17.16;62.04;101409.19;5048837;28;19917;-77
2022/06/19 07:00:42;;;;;;;;;;;;;;;17.16;62.08;101402.94;5052333;28;19917;-77
2022/06/19 07:03:09;;;;;;;;;;;;;;;17.12;62.32;101410.22;5058637;28;19964;-77
2022/06/19 07:05:35;;;;;;;;;;;;;;;17.16;61.71;101419.00;5053150;28;19920;-77
2022/06/19 07:08:02;;;;;;;;;;;;;;;17.18;61.77;101425.19;5058707;28;19970;-77
2022/06/19 07:10:28;;;;;;;;;;;;;;;17.11;61.85;101428.09;5056268;28;19925;-77
2022/06/19 07:12:54;;;;;;;;;;;;;;;17.01;61.47;101432.06;5049567;28;19917;-76
2022/06/19 07:15:20;;;;;;;;;;;;;;;17.04;61.27;101431.06;5058429;28;19951;-77
2022/06/19 07:17:46;;;;;;;;;;;;;;;17.16;61.27;101430.59;5054110;28;20463;-77
2022/06/19 07:20:13;;;;;;;;;;;;;;;17.19;61.17;101445.69;5052014;28;19916;-77
2022/06/19 07:22:38;;;;;;;;;;;;;;;17.22;61.07;101445.53;5055001;28;19929;-77
2022/06/19 07:25:06;;;;;;;;;;;;;;;17.24;60.68;101467.78;5053040;28;19968;-77
2022/06/19 07:27:32;;;;;;;;;;;;;;;17.23;60.96;101491.00;5051273;28;19967;-77
2022/06/19 07:29:58;;;;;;;;;;;;;;;17.27;60.89;101491.75;5053933;28;20454;-77
2022/06/19 07:32:24;;;;;;;;;;;;;;;17.24;61.34;101486.53;5049012;28;20007;-77
2022/06/19 07:34:50;;;;;;;;;;;;;;;17.24;61.64;101481.19;5048990;28;19999;-78
2022/06/19 07:37:16;;;;;;;;;;;;;;;17.29;61.51;101476.53;5056115;28;20006;-77
2022/06/19 07:39:43;;;;;;;;;;;;;;;17.35;61.99;101470.94;5049904;28;19916;-77
2022/06/19 07:42:10;;;;;;;;;;;;;;;17.40;61.77;101454.69;5048186;28;19924;-79
2022/06/19 07:44:36;;;;;;;;;;;;;;;17.40;61.77;101439.47;5051391;28;20018;-77
2022/06/19 07:50:20;;;;;;;;;;;;;;;17.36;62.59;101395.00;5058655;28;19917;-79
2022/06/19 07:52:37;;;;;;;;;;;;;;;17.29;61.92;101372.06;5050766;28;19923;-76
2022/06/19 07:55:04;;;;;;;;;;;;;;;17.17;62.55;101360.06;5049285;28;19923;-76
2022/06/19 07:57:30;;;;;;;;;;;;;;;17.16;62.71;101357.41;5049054;28;19986;-76
2022/06/19 07:59:56;;;;;;;;;;;;;;;17.10;62.76;101346.03;5049676;28;20288;-77
2022/06/19 08:02:24;;;;;;;;;;;;;;;17.11;64.12;101330.84;5054847;28;20396;-77
2022/06/19 08:04:50;;;;;;;;;;;;;;;17.07;64.50;101314.03;5054128;28;19924;-77
2022/06/19 08:07:17;;;;;;;;;;;;;;;17.11;64.00;101288.88;5053981;28;19916;-77
2022/06/19 08:09:43;;;;;;;;;;;;;;;17.26;64.11;101311.47;5055338;28;20046;-76
2022/06/19 08:12:09;;;;;;;;;;;;;;;17.30;64.09;101321.13;5053338;28;19917;-76
2022/06/19 08:14:35;;;;;;;;;;;;;;;17.46;64.24;101336.59;5050477;28;19917;-77
2022/06/19 08:17:02;;;;;;;;;;;;;;;17.60;64.53;101344.03;5052057;28;19925;-77
2022/06/19 08:19:28;;;;;;;;;;;;;;;17.71;63.30;101347.13;5052235;28;19920;-76
2022/06/19 08:21:54;;;;;;;;;;;;;;;17.84;62.96;101360.88;5052803;28;19932;-76
2022/06/19 08:24:20;;;;;;;;;;;;;;;17.88;62.75;101373.25;5049005;28;19924;-76
2022/06/19 08:26:47;;;;;;;;;;;;;;;17.93;62.36;101367.66;5050181;28;19962;-77
2022/06/19 08:29:13;;;;;;;;;;;;;;;18.03;62.81;101390.53;5051410;28;20008;-76
2022/06/19 08:31:41;;;;;;;;;;;;;;;18.13;62.89;101407.09;5049959;28;19928;-76
2022/06/19 08:34:07;;;;;;;;;;;;;;;18.11;62.18;101404.44;5050675;28;19956;-76
2022/06/19 08:36:34;;;;;;;;;;;;;;;18.08;61.74;101409.97;5048350;28;20459;-76
2022/06/19 08:39:06;;;;;;;;;;;;;;;18.04;61.81;101415.50;5052309;28;19940;-77
2022/06/19 08:41:41;;;;;;;;;;;;;;;18.03;62.54;101397.69;5055963;28;19924;-79
2022/06/19 08:46:56;;;;;;;;;;;;;;;18.07;62.15;101373.34;5066314;28;20363;-80
2022/06/19 08:49:32;;;;;;;;;;;;;;;18.13;62.88;101358.81;5046442;28;19917;-77
2022/06/19 08:52:06;;;;;;;;;;;;;;;18.26;62.33;101361.81;5054730;28;20007;-77
2022/06/19 08:57:22;;;;;;;;;;;;;;;18.28;61.10;101354.59;5060327;28;19920;-75
2022/06/19 08:59:54;;;;;;;;;;;;;;;18.40;61.60;101358.53;5055511;28;19979;-75
2022/06/19 09:07:45;;;;;;;;;;;;;;;18.81;61.39;101349.53;5085926;27;1880772;-75
2022/06/19 09:10:24;;;;;;;;;;;;;;;18.93;60.66;101346.31;5158462;27;20001;-75
2022/06/19 09:15:34;;;;;;;;;;;;;;;19.01;59.30;101349.47;5078708;27;19917;-76
2022/06/19 09:18:03;;;;;;;;;;;;;;;19.07;59.00;101318.78;5078252;28;19916;-75
2022/06/19 09:26:08;;;;;;;;;;;;;;;19.48;59.05;101293.53;5103083;27;19916;-75
2022/06/19 09:28:41;;;;;;;;;;;;;;;19.59;57.87;101279.53;5105864;28;20457;-77
2022/06/19 09:31:11;;;;;;;;;;;;;;;19.76;57.87;101287.59;5097659;28;19916;-78
2022/06/19 09:33:42;;;;;;;;;;;;;;;19.87;57.30;101271.81;5109011;28;19912;-75
2022/06/19 09:36:28;;;;;;;;;;;;;;;20.07;57.76;101283.34;5109540;28;20002;-75
2022/06/19 09:38:58;;;;;;;;;;;;;;;20.15;56.87;101282.91;5108577;28;19927;-75
2022/06/19 09:41:37;;;;;;;;;;;;;;;20.30;56.16;101284.81;5107222;28;19916;-75
2022/06/19 09:44:12;;;;;;;;;;;;;;;20.44;56.40;101293.97;5100723;28;19926;-75
2022/06/19 09:46:42;;;;;;;;;;;;;;;20.49;55.78;101300.81;5105617;28;19916;-74
2022/06/19 09:49:27;;;;;;;;;;;;;;;20.48;54.75;101298.22;5108677;27;19973;-74
2022/06/19 09:51:58;;;;;;;;;;;;;;;20.47;55.29;101293.78;5109974;28;19920;-77
2022/06/19 09:54:29;;;;;;;;;;;;;;;20.46;54.73;101300.09;5125683;27;19963;-77
2022/06/19 09:59:53;;;;;;;;;;;;;;;20.41;54.80;101329.09;5064112;28;19917;-76
2022/06/19 10:02:23;;;;;;;;;;;;;;;20.33;55.43;101327.69;5037607;28;19925;-75
2022/06/19 10:04:59;;;;;;;;;;;;;;;20.36;55.50;101343.69;5036452;28;19927;-75
2022/06/19 10:10:18;;;;;;;;;;;;;;;20.24;54.93;101355.09;5094955;27;20419;-80
2022/06/19 10:12:47;;;;;;;;;;;;;;;20.18;55.05;101355.41;5085408;28;19920;-79
2022/06/19 10:15:16;;;;;;;;;;;;;;;20.17;55.66;101353.66;5093220;28;19916;-77
2022/06/19 10:20:31;;;;;;;;;;;;;;;20.05;55.14;101355.19;5060468;28;19925;-77
2022/06/19 10:23:01;;;;;;;;;;;;;;;20.02;55.19;101355.34;5064207;28;20059;-75
2022/06/19 10:25:47;;;;;;;;;;;;;;;19.92;55.27;101371.06;5059750;28;20028;-75
2022/06/19 10:28:33;;;;;;;;;;;;;;;19.88;55.91;101361.44;5060425;28;19939;-76
2022/06/19 10:31:19;;;;;;;;;;;;;;;19.79;55.79;101369.91;5058286;28;19921;-75
2022/06/19 10:34:05;;;;;;;;;;;;;;;19.72;55.83;101370.22;5069875;28;20437;-77
2022/06/19 10:36:38;;;;;;;;;;;;;;;19.67;55.82;101374.97;5065353;28;20314;-77
2022/06/19 10:39:24;;;;;;;;;;;;;;;19.66;55.42;101375.03;5062094;28;19921;-78
2022/06/19 10:44:41;;;;;;;;;;;;;;;19.85;55.74;101386.66;5078366;27;19916;-78
2022/06/19 10:47:14;;;;;;;;;;;;;;;20.06;55.47;101370.34;5057292;28;19924;-75
2022/06/19 10:49:46;;;;;;;;;;;;;;;20.29;55.13;101363.78;5062889;28;20382;-76
2022/06/19 10:52:19;;;;;;;;;;;;;;;20.64;54.51;101374.47;5050479;28;19955;-75
2022/06/19 10:54:55;;;;;;;;;;;;;;;21.01;54.10;101356.34;5044702;28;19923;-75
2022/06/19 10:57:29;;;;;;;;;;;;;;;21.33;53.73;101329.41;5042963;28;20051;-77
2022/06/19 10:59:55;;;;;;;;;;;;;;;21.53;52.79;101284.22;5039752;28;19928;-76
2022/06/19 11:05:01;;;;;;;;;;;;;;;21.50;53.39;101281.72;5089454;27;19989;-76
2022/06/19 11:07:28;;;;;;;;;;;;;;;21.45;52.44;101311.63;5088831;28;19923;-78
2022/06/19 11:09:58;;;;;;;;;;;;;;;21.46;52.83;101320.59;5087697;28;20376;-76
2022/06/19 11:12:41;;;;;;;;;;;;;;;21.45;52.38;101300.84;5086467;28;19955;-76
2022/06/19 11:15:10;;;;;;;;;;;;;;;21.45;51.56;101287.38;5086959;28;19970;-76
2022/06/19 11:23:01;;;;;;;;;;;;;;;21.85;51.85;101321.91;5088588;27;19938;-75
2022/06/19 11:25:32;;;;;;;;;;;;;;;21.91;51.61;101329.66;5089171;28;19917;-76
2022/06/19 11:28:01;;;;;;;;;;;;;;;22.17;51.66;101346.09;5088779;28;19912;-75
2022/06/19 11:30:30;;;;;;;;;;;;;;;22.27;49.22;101343.69;5085923;28;19920;-76
2022/06/19 11:32:56;;;;;;;;;;;;;;;22.35;50.31;101359.41;5087589;28;19975;-75
2022/06/19 11:35:23;;;;;;;;;;;;;;;22.29;49.82;101391.22;5088612;28;19962;-76
2022/06/19 11:37:52;;;;;;;;;;;;;;;22.27;50.39;101385.03;5088542;28;19912;-76
2022/06/19 11:40:20;;;;;;;;;;;;;;;22.32;49.65;101381.19;5088694;28;19923;-76
2022/06/19 11:42:55;;;;;;;;;;;;;;;22.24;49.35;101401.44;5088294;28;19917;-76
2022/06/19 11:45:23;;;;;;;;;;;;;;;22.16;48.83;101414.50;5087901;28;19920;-77
2022/06/19 11:53:15;;;;;;;;;;;;;;;22.18;49.57;101465.69;5005353;28;19975;-76
2022/06/19 11:55:43;;;;;;;;;;;;;;;22.11;48.32;101468.75;5003291;28;19918;-76
2022/06/19 12:00:55;;;;;;;;;;;;;;;21.96;48.36;101462.44;5128586;27;19965;-75
2022/06/19 12:03:30;;;;;;;;;;;;;;;22.10;49.40;101455.34;5129256;27;19935;-76
2022/06/19 12:05:59;;;;;;;;;;;;;;;22.18;48.99;101471.97;5130454;27;20003;-76
2022/06/19 12:08:28;;;;;;;;;;;;;;;22.28;48.69;101478.56;5130582;27;19915;-75
2022/06/19 12:10:59;;;;;;;;;;;;;;;22.38;47.58;101488.84;5125715;27;19916;-76
2022/06/19 12:13:27;;;;;;;;;;;;;;;22.53;48.10;101484.34;5128817;27;20345;-76
2022/06/19 12:15:55;;;;;;;;;;;;;;;22.68;48.16;101491.53;5129812;27;20002;-77
2022/06/19 12:18:21;;;;;;;;;;;;;;;22.76;46.58;101489.22;5147407;27;19937;-77
2022/06/19 12:20:57;;;;;;;;;;;;;;;22.86;46.03;101494.06;5150725;27;20024;-77
2022/06/19 12:23:24;;;;;;;;;;;;;;;23.00;46.53;101495.91;5145633;27;19928;-77
2022/06/19 12:25:52;;;;;;;;;;;;;;;23.05;46.28;101507.28;5122517;27;20022;-77
2022/06/19 12:36:30;;;;;;;;;;;;;;;22.96;45.09;101510.59;5012252;28;19922;-75
2022/06/19 12:38:56;;;;;;;;;;;;;;;23.01;44.52;101513.88;4989054;28;19961;-76
2022/06/19 12:44:07;;;;;;;;;;;;;;;23.31;44.87;101515.63;5053718;27;19916;-75
2022/06/19 12:51:54;;;;;;;;;;;;;;;22.83;43.80;101495.13;5053934;28;20452;-76
2022/06/19 12:54:30;;;;;;;;;;;;;;;22.85;45.64;101503.13;5043552;28;19917;-77
2022/06/19 13:02:23;;;;;;;;;;;;;;;23.26;44.86;101515.91;5067250;27;1904173;-77
2022/06/19 13:07:58;;;;;;;;;;;;;;;24.12;43.12;101516.75;5104885;27;1875228;-77
2022/06/19 13:10:44;;;;;;;;;;;;;;;24.36;42.60;101506.09;5142394;27;19973;-77
2022/06/19 13:13:30;;;;;;;;;;;;;;;24.50;41.94;101510.56;5139331;27;20273;-77
2022/06/19 13:15:57;;;;;;;;;;;;;;;24.73;42.88;101522.56;5124329;27;19923;-77
2022/06/19 13:18:43;;;;;;;;;;;;;;;24.90;41.86;101539.50;5138537;27;19988;-76
2022/06/19 13:21:18;;;;;;;;;;;;;;;25.00;42.06;101537.91;5132154;27;19916;-77
2022/06/19 13:23:52;;;;;;;;;;;;;;;24.86;40.96;101556.00;5136742;27;19919;-78
2022/06/19 13:29:35;;;;;;;;;;;;;;;24.55;40.69;101513.88;5142437;27;19915;-77
2022/06/19 13:32:21;;;;;;;;;;;;;;;24.34;39.92;101510.78;5148976;27;19915;-77
2022/06/19 13:34:59;;;;;;;;;;;;;;;24.24;40.73;101526.78;5148017;27;19916;-79
2022/06/19 13:37:45;;;;;;;;;;;;;;;24.23;41.69;101535.88;5135314;27;19919;-77
2022/06/19 13:40:21;;;;;;;;;;;;;;;24.18;40.69;101541.56;5136214;27;19916;-77
2022/06/19 13:45:39;;;;;;;;;;;;;;;23.97;42.12;101556.53;5135155;27;19916;-76
2022/06/19 13:48:11;;;;;;;;;;;;;;;23.94;41.35;101554.91;5117890;28;19916;-76
2022/06/19 13:50:41;;;;;;;;;;;;;;;23.83;40.67;101547.44;5109953;27;19915;-76
2022/06/19 13:56:06;;;;;;;;;;;;;;;23.64;42.27;101555.91;5071698;28;20357;-77
2022/06/19 13:58:41;;;;;;;;;;;;;;;23.49;41.45;101583.91;5053476;28;19928;-77
2022/06/19 14:06:49;;;;;;;;;;;;;;;22.71;44.04;101582.31;5068771;28;19999;-77
2022/06/19 14:09:27;;;;;;;;;;;;;;;22.40;44.75;101590.38;5061156;28;19924;-76
2022/06/19 14:12:10;;;;;;;;;;;;;;;22.26;45.00;101585.75;5047329;28;19971;-76
2022/06/19 14:14:41;;;;;;;;;;;;;;;22.02;45.26;101566.44;5041359;28;20297;-76
2022/06/19 14:17:14;;;;;;;;;;;;;;;21.95;45.64;101543.47;5046801;28;19917;-77
2022/06/19 14:19:46;;;;;;;;;;;;;;;21.80;46.06;101531.72;5038648;28;19917;-77